Terminal Aerodrome Forecast
Issued by NWS Jackson, MS

Home | Current Version | Previous Version | Text Only | Print | Product List | Glossary On
Versions: 1 2 3 4 5 6 7 8 9 10 11 12 13 14 15 16 17
231
FTUS44 KJAN 240520
TAFHBG
TAF
KHBG 240520Z 2406/2506 30003KT P6SM SCT100
     FM240615 29005KT P6SM -RA SCT060 OVC100
     FM240800 27008KT P6SM VCSH BKN040 OVC060
     FM241100 29010KT 6SM BR BKN015
     FM241300 30012KT P6SM BKN050
     FM241900 27019G25KT P6SM SCT100
     FM250000 28007KT P6SM SKC=

USA.gov is the U.S. government's official web portal to all federal, state and local government web resources and services.